Atwater, California
Current Conditions -  °F | °C
As of 3:45 PM on Wednesday 26 Nov 2014 (Local Time) from KMER Reporting Station
Haze Haze  
Wind Chill: 68°   Ceiling: Unl
Heat Index: 68°   Visibility: 5mi
Dew Point: 45°   Wind: 0mph
Humidity: 43%   Direction: NA
Pressure: 30.23"   Gusts: NA
Location:  37.35°N, 120.6°W
Report Text: KMER 262345Z 00000KT 5SM HZ SKC 20/07 A3023
Loading
Personal Weather Stations






























Interactive Weather Map New forecast layout! Learn more

10-Day Weather Forecast

Advertisements
Track Severe Weather on mobile